This is the latest recevied weather packets stored in our database for station/object N8AMF. If no packets are shown the sender has not sent any weather packets the latest 10 day(s).
| Time | Temp. | Humidity | Pressure | Rain* | Wind** | Luminosity | Snow |
|---|---|---|---|---|---|---|---|
| 1777657885 | 5.56° C | 95% | 1012.4 hPa | 0.51 mm | - | 171 W/m² | - |
| 1777657582 | 5.56° C | 95% | 1012.4 hPa | 0.51 mm | - | 181 W/m² | - |
| 1777657280 | 5.56° C | 95% | 1012.3 hPa | 0.51 mm | - | 154 W/m² | - |
| 1777656977 | 5.56° C | 95% | 1012.2 hPa | 0.51 mm | - | 145 W/m² | - |
| 1777656674 | 5.56° C | 95% | 1012.2 hPa | 0.51 mm | - | 161 W/m² | - |
| 1777656369 | 5.56° C | 95% | 1012.3 hPa | 0.51 mm | - | 194 W/m² | - |
| 1777656064 | 5° C | 95% | 1012.2 hPa | 0.51 mm | - | 171 W/m² | - |
| 1777655761 | 5° C | 95% | 1012.3 hPa | 0.51 mm | - | 126 W/m² | - |
| 1777655458 | 5° C | 95% | 1012.2 hPa | 0 mm | - | 129 W/m² | - |
| 1777655154 | 5° C | 95% | 1012.5 hPa | 0.51 mm | - | 58 W/m² | - |
| 1777654851 | 5.56° C | 95% | 1012.3 hPa | 0.51 mm | - | 83 W/m² | - |
| 1777654549 | 5.56° C | 95% | 1012 hPa | 0.51 mm | - | 138 W/m² | - |
| 1777654246 | 5.56° C | 95% | 1012.1 hPa | 0.51 mm | - | 238 W/m² | - |
| 1777653944 | 5.56° C | 96% | 1012.3 hPa | 0 mm | - | 183 W/m² | - |
| 1777653640 | 5.56° C | 96% | 1012.3 hPa | 0 mm | - | 176 W/m² | - |
| 1777653337 | 5.56° C | 96% | 1012.2 hPa | 0.51 mm | - | 194 W/m² | - |
| 1777653034 | 5.56° C | 96% | 1012.1 hPa | 0.51 mm | - | 208 W/m² | - |
| 1777652730 | 5.56° C | 96% | 1011.9 hPa | 0 mm | - | 233 W/m² | - |
| 1777652427 | 5.56° C | 96% | 1012.3 hPa | 0 mm | - | 163 W/m² | - |
| 1777652125 | 5.56° C | 96% | 1012.2 hPa | 0.51 mm | - | 205 W/m² | - |
| 1777651821 | 5.56° C | 96% | 1012 hPa | 0.51 mm | - | 209 W/m² | - |
| 1777651518 | 5.56° C | 96% | 1011.9 hPa | 1.27 mm | - | 222 W/m² | - |
| 1777651215 | 5.56° C | 96% | 1012 hPa | 1.27 mm | - | 198 W/m² | - |
| 1777650912 | 5.56° C | 96% | 1012.2 hPa | 0.51 mm | - | 161 W/m² | - |
| 1777650609 | 5.56° C | 96% | 1012.1 hPa | 1.27 mm | - | 148 W/m² | - |
* Rain latest hour (hover to see other rain measurements)
** Current wind speed in m/s (hover to see current wind gust speed)